createdAt,value
2023-05-06T00:00:06.556Z,19.73
2023-05-06T00:02:38.833Z,21.60
2023-05-06T00:05:06.790Z,21.48
2023-05-06T00:07:33.938Z,22.45
2023-05-06T00:10:00.886Z,19.27
2023-05-06T00:12:27.900Z,20.58
2023-05-06T00:14:54.850Z,18.75
2023-05-06T00:17:21.867Z,21.48
2023-05-06T00:19:49.469Z,19.67
2023-05-06T00:22:16.495Z,24.25
2023-05-06T00:24:43.503Z,22.25
2023-05-06T00:27:10.725Z,23.95
2023-05-06T00:29:37.730Z,26.30
2023-05-06T00:32:05.724Z,25.95
2023-05-06T00:34:33.117Z,25.13
2023-05-06T00:37:00.066Z,23.73
2023-05-06T00:39:27.113Z,21.10
2023-05-06T00:41:54.086Z,23.60
2023-05-06T00:44:21.019Z,24.80
2023-05-06T00:46:48.275Z,23.73
2023-05-06T00:49:15.341Z,21.90
2023-05-06T00:51:42.426Z,19.85
2023-05-06T00:54:10.055Z,22.45
2023-05-06T00:56:37.360Z,19.40
2023-05-06T00:59:04.473Z,19.83
2023-05-06T01:01:31.902Z,24.40
2023-05-06T01:04:00.386Z,20.70
2023-05-06T01:06:40.778Z,19.55
2023-05-06T01:09:27.331Z,22.45
2023-05-06T01:12:26.695Z,23.58
2023-05-06T01:15:14.119Z,27.02
2023-05-06T01:17:46.492Z,24.77
2023-05-06T01:20:15.220Z,26.27
2023-05-06T01:22:42.533Z,25.10
2023-05-06T01:25:22.501Z,30.75
2023-05-06T01:27:50.625Z,24.90
2023-05-06T01:30:22.840Z,24.25
2023-05-06T01:33:09.462Z,23.70
2023-05-06T01:36:15.281Z,23.73
2023-05-06T01:38:57.611Z,24.70
2023-05-06T01:41:27.202Z,19.92
2023-05-06T01:43:56.984Z,20.83
2023-05-06T01:46:25.601Z,23.05
2023-05-06T01:48:58.564Z,26.27
2023-05-06T01:51:25.838Z,63.97
2023-05-06T01:53:52.848Z,33.80
2023-05-06T01:56:19.856Z,31.83
2023-05-06T01:58:46.810Z,24.77
2023-05-06T02:01:14.641Z,26.05
2023-05-06T02:03:41.749Z,24.20
2023-05-06T02:06:08.986Z,22.40
2023-05-06T02:08:40.720Z,23.25
2023-05-06T02:11:10.222Z,24.38
2023-05-06T02:13:38.178Z,27.15
2023-05-06T02:16:08.801Z,25.63
2023-05-06T02:18:36.039Z,27.35
2023-05-06T02:21:03.295Z,24.38
2023-05-06T02:23:30.447Z,27.60
2023-05-06T02:25:58.919Z,26.98
2023-05-06T02:28:25.966Z,24.55
2023-05-06T02:30:57.632Z,23.35
2023-05-06T02:33:24.910Z,23.67
2023-05-06T02:35:51.955Z,23.55
2023-05-06T02:38:19.825Z,23.92
2023-05-06T02:40:46.860Z,25.15
2023-05-06T02:43:13.882Z,23.10
2023-05-06T02:45:41.062Z,23.80
2023-05-06T02:48:08.254Z,24.65
2023-05-06T02:50:37.037Z,25.20
2023-05-06T02:53:04.033Z,24.67
2023-05-06T02:55:31.307Z,24.70
2023-05-06T02:57:58.317Z,23.48
2023-05-06T03:00:25.450Z,26.50
2023-05-06T03:02:52.589Z,26.08
2023-05-06T03:05:19.553Z,24.60
2023-05-06T03:07:46.920Z,24.83
2023-05-06T03:10:14.869Z,23.80
2023-05-06T03:12:42.447Z,25.80
2023-05-06T03:15:10.439Z,23.60
2023-05-06T03:17:38.578Z,22.80
2023-05-06T03:20:08.805Z,22.27
2023-05-06T03:22:38.551Z,22.73
2023-05-06T03:25:06.333Z,22.35
2023-05-06T03:27:34.774Z,22.23
2023-05-06T03:30:09.177Z,23.40
2023-05-06T03:32:37.979Z,21.08
2023-05-06T03:35:08.912Z,21.77
2023-05-06T03:37:36.181Z,22.50
2023-05-06T03:40:04.774Z,24.40
2023-05-06T03:42:32.961Z,24.08
2023-05-06T03:45:01.022Z,24.00
2023-05-06T03:47:31.026Z,23.75
2023-05-06T03:49:58.101Z,23.13
2023-05-06T03:52:26.023Z,21.60
2023-05-06T03:54:53.316Z,24.20
2023-05-06T03:57:20.718Z,22.85
2023-05-06T03:59:47.761Z,24.55
2023-05-06T04:02:16.986Z,23.23
2023-05-06T04:04:44.282Z,22.58
2023-05-06T04:07:12.281Z,26.20
2023-05-06T04:09:39.347Z,24.67
2023-05-06T04:12:08.488Z,25.23
2023-05-06T04:14:36.439Z,27.38
2023-05-06T04:17:05.527Z,24.95
2023-05-06T04:19:33.544Z,26.67
2023-05-06T04:22:00.750Z,24.52
2023-05-06T04:24:31.329Z,23.83
2023-05-06T04:26:59.236Z,23.30
2023-05-06T04:29:27.065Z,22.85
2023-05-06T04:32:00.552Z,20.52
2023-05-06T04:34:31.180Z,21.52
2023-05-06T04:37:01.602Z,22.45
2023-05-06T04:39:36.967Z,20.40
2023-05-06T04:42:04.435Z,19.70
2023-05-06T04:44:38.982Z,21.55
2023-05-06T04:47:09.657Z,17.80
2023-05-06T04:49:38.254Z,18.10
2023-05-06T04:52:06.135Z,17.23
2023-05-06T04:54:34.084Z,18.42
2023-05-06T04:57:01.085Z,17.17
2023-05-06T04:59:29.286Z,17.02
2023-05-06T05:01:56.710Z,15.38
2023-05-06T05:04:23.674Z,15.73
2023-05-06T05:06:50.671Z,19.15
2023-05-06T05:09:17.782Z,15.13
2023-05-06T05:11:46.887Z,14.98
2023-05-06T05:14:13.885Z,13.88
2023-05-06T05:16:40.974Z,14.93
2023-05-06T05:19:09.235Z,13.07
2023-05-06T05:21:36.981Z,12.07
2023-05-06T05:24:05.158Z,11.75
2023-05-06T05:26:32.202Z,12.63
2023-05-06T05:29:00.649Z,10.00
2023-05-06T05:31:29.295Z,10.77
2023-05-06T05:33:57.252Z,10.52
2023-05-06T05:36:24.609Z,14.65
2023-05-06T05:38:54.574Z,12.32
2023-05-06T05:41:26.560Z,10.20
2023-05-06T05:43:54.812Z,9.20
2023-05-06T05:46:22.167Z,11.13
2023-05-06T05:48:50.749Z,8.60
2023-05-06T05:51:20.455Z,13.82
2023-05-06T05:53:47.589Z,8.98
2023-05-06T05:56:15.380Z,10.32
2023-05-06T05:58:42.380Z,11.52
2023-05-06T06:01:09.543Z,11.25
2023-05-06T06:03:36.865Z,9.57
2023-05-06T06:06:05.915Z,12.85
2023-05-06T06:08:34.253Z,10.77
2023-05-06T06:11:04.014Z,13.32
2023-05-06T06:16:04.428Z,11.45
2023-05-06T06:18:33.496Z,13.07
2023-05-06T06:21:00.705Z,11.98
2023-05-06T06:23:27.685Z,17.45
2023-05-06T06:25:54.816Z,15.40
2023-05-06T06:28:21.966Z,13.73
2023-05-06T06:30:49.038Z,12.77
2023-05-06T06:33:16.189Z,14.02
2023-05-06T06:35:43.148Z,13.35
2023-05-06T06:38:10.114Z,13.10
2023-05-06T06:40:37.134Z,16.45
2023-05-06T06:43:04.138Z,14.73
2023-05-06T06:45:48.917Z,13.07
2023-05-06T06:48:16.670Z,12.32
2023-05-06T06:50:43.726Z,13.93
2023-05-06T06:53:11.244Z,13.18
2023-05-06T06:55:38.330Z,14.25
2023-05-06T06:58:05.334Z,12.98
2023-05-06T07:00:32.402Z,12.88
2023-05-06T07:02:59.434Z,16.02
2023-05-06T07:05:27.152Z,12.60
2023-05-06T07:07:55.458Z,13.05
2023-05-06T07:10:22.705Z,13.18
2023-05-06T07:12:49.690Z,11.45
2023-05-06T07:15:16.725Z,13.13
2023-05-06T07:17:43.901Z,11.73
2023-05-06T07:20:11.910Z,18.15
2023-05-06T07:22:39.162Z,15.05
2023-05-06T07:25:06.924Z,11.13
2023-05-06T07:27:33.844Z,12.68
2023-05-06T07:30:00.904Z,11.13
2023-05-06T07:32:27.915Z,12.68
2023-05-06T07:34:54.959Z,11.13
2023-05-06T07:37:21.981Z,12.30
2023-05-06T07:39:49.033Z,10.70
2023-05-06T07:42:16.024Z,9.20
2023-05-06T07:44:43.147Z,11.70
2023-05-06T07:47:10.197Z,10.27
2023-05-06T07:49:37.273Z,13.27
2023-05-06T07:52:04.727Z,8.35
2023-05-06T07:54:31.918Z,9.00
2023-05-06T07:56:58.988Z,13.77
2023-05-06T07:59:26.027Z,11.82
2023-05-06T08:01:53.068Z,12.50
2023-05-06T08:04:20.034Z,12.98
2023-05-06T08:06:47.030Z,12.38
2023-05-06T08:09:22.324Z,12.98
2023-05-06T08:11:50.842Z,12.30
2023-05-06T08:14:17.736Z,10.13
2023-05-06T08:16:44.942Z,11.27
2023-05-06T08:19:12.078Z,13.18
2023-05-06T08:21:39.038Z,12.60
2023-05-06T08:24:06.219Z,8.80
2023-05-06T08:26:33.223Z,9.73
2023-05-06T08:29:00.345Z,12.60
2023-05-06T08:31:27.562Z,8.35
2023-05-06T08:33:55.123Z,8.10
2023-05-06T08:36:22.436Z,6.88
2023-05-06T08:38:50.955Z,8.90
2023-05-06T08:41:21.382Z,6.90
2023-05-06T08:43:50.608Z,7.88
2023-05-06T08:46:18.189Z,12.82
2023-05-06T08:48:45.746Z,9.55
2023-05-06T08:51:17.658Z,7.97
2023-05-06T08:53:48.755Z,10.27
2023-05-06T08:56:16.727Z,10.38
2023-05-06T08:58:48.808Z,8.30
2023-05-06T09:01:16.159Z,7.40
2023-05-06T09:03:44.169Z,8.05
2023-05-06T09:06:11.237Z,6.75
2023-05-06T09:08:38.227Z,8.98
2023-05-06T09:11:27.808Z,6.40
2023-05-06T09:14:16.022Z,7.72
2023-05-06T09:16:47.143Z,7.57
2023-05-06T09:19:15.887Z,8.50
2023-05-06T09:21:48.483Z,8.27
2023-05-06T09:24:16.991Z,7.80
2023-05-06T09:26:46.100Z,9.25
2023-05-06T09:29:13.941Z,7.07
2023-05-06T09:31:44.749Z,9.27
2023-05-06T09:34:13.383Z,9.05
2023-05-06T09:36:40.638Z,8.20
2023-05-06T09:39:08.496Z,9.73
2023-05-06T09:41:35.747Z,8.85
2023-05-06T09:44:03.730Z,9.05
2023-05-06T09:46:30.853Z,8.52
2023-05-06T09:48:58.937Z,5.80
2023-05-06T09:51:27.986Z,5.22
2023-05-06T09:53:57.723Z,4.82
2023-05-06T09:56:26.236Z,6.20
2023-05-06T09:58:55.638Z,7.20
2023-05-06T10:01:35.435Z,5.22
2023-05-06T10:04:10.156Z,5.18
2023-05-06T10:09:09.267Z,5.15
2023-05-06T10:11:36.905Z,4.50
2023-05-06T10:14:05.138Z,4.82
2023-05-06T10:16:36.177Z,6.32
2023-05-06T10:19:07.933Z,5.30
2023-05-06T10:21:40.304Z,6.55
2023-05-06T10:24:11.805Z,5.10
2023-05-06T10:26:42.426Z,5.68
2023-05-06T10:29:10.996Z,6.95
2023-05-06T10:31:57.113Z,10.85
2023-05-06T10:34:25.585Z,5.53
2023-05-06T10:36:57.771Z,5.50
2023-05-06T10:39:26.660Z,5.18
2023-05-06T10:41:53.695Z,6.47
2023-05-06T10:45:00.214Z,7.03
2023-05-06T10:47:27.522Z,7.03
2023-05-06T10:50:27.903Z,4.78
2023-05-06T10:52:59.139Z,6.18
2023-05-06T10:55:35.294Z,7.70
2023-05-06T10:58:11.393Z,6.88
2023-05-06T11:00:38.464Z,6.53
2023-05-06T11:03:13.416Z,6.40
2023-05-06T11:05:58.871Z,4.95
2023-05-06T11:08:27.047Z,4.22
2023-05-06T11:10:55.160Z,6.38
2023-05-06T11:13:28.671Z,4.45
2023-05-06T11:15:57.498Z,5.88
2023-05-06T11:18:24.445Z,4.43
2023-05-06T11:21:20.396Z,4.93
2023-05-06T11:23:49.500Z,4.75
2023-05-06T11:26:16.781Z,5.18
2023-05-06T11:28:51.101Z,5.80
2023-05-06T11:31:18.940Z,4.45
2023-05-06T11:33:55.053Z,4.50
2023-05-06T11:36:22.055Z,4.88
2023-05-06T11:38:52.384Z,4.30
2023-05-06T11:41:20.132Z,5.03
2023-05-06T11:43:51.716Z,3.85
2023-05-06T11:46:20.638Z,5.97
2023-05-06T11:48:48.510Z,4.88
2023-05-06T11:51:16.233Z,4.50
2023-05-06T11:53:43.323Z,4.00
2023-05-06T11:56:10.580Z,3.38
2023-05-06T11:58:37.620Z,3.45
2023-05-06T12:01:04.642Z,5.00
2023-05-06T12:03:34.154Z,5.47
2023-05-06T12:06:01.437Z,3.03
2023-05-06T12:08:36.856Z,6.32
2023-05-06T12:11:08.157Z,3.45
2023-05-06T12:13:36.844Z,5.43
2023-05-06T12:16:05.917Z,6.10
2023-05-06T12:18:33.431Z,3.30
2023-05-06T12:21:03.498Z,3.50
2023-05-06T12:23:30.666Z,4.75
2023-05-06T12:26:04.044Z,5.72
2023-05-06T12:28:35.377Z,5.60
2023-05-06T12:31:22.710Z,2.30
2023-05-06T12:33:50.621Z,5.97
2023-05-06T12:36:19.404Z,4.63
2023-05-06T12:38:55.101Z,9.55
2023-05-06T12:41:25.234Z,3.05
2023-05-06T12:43:52.848Z,2.83
2023-05-06T12:46:19.915Z,3.35
2023-05-06T12:49:00.763Z,3.05
2023-05-06T12:51:30.810Z,2.95
2023-05-06T12:53:57.914Z,4.45
2023-05-06T12:56:25.174Z,4.28
2023-05-06T12:58:57.800Z,2.00
2023-05-06T13:01:24.871Z,3.75
2023-05-06T13:03:52.662Z,1.83
2023-05-06T13:06:19.615Z,4.20
2023-05-06T13:08:46.627Z,4.97
2023-05-06T13:11:13.729Z,2.42
2023-05-06T13:13:41.023Z,1.92
2023-05-06T13:16:09.770Z,3.03
2023-05-06T13:18:37.049Z,3.10
2023-05-06T13:21:04.140Z,2.63
2023-05-06T13:23:31.766Z,4.90
2023-05-06T13:26:04.923Z,2.75
2023-05-06T13:28:35.453Z,4.43
2023-05-06T13:31:02.601Z,4.60
2023-05-06T13:33:29.946Z,1.88
2023-05-06T13:35:57.272Z,3.65
2023-05-06T13:38:24.329Z,2.15
2023-05-06T13:40:53.725Z,3.92
2023-05-06T13:43:26.283Z,1.98
2023-05-06T13:45:53.631Z,4.20
2023-05-06T13:48:20.797Z,2.42
2023-05-06T13:50:48.282Z,3.05
2023-05-06T13:53:16.283Z,2.45
2023-05-06T13:55:44.083Z,4.25
2023-05-06T13:58:11.247Z,12.88
2023-05-06T14:00:39.928Z,2.97
2023-05-06T14:03:07.788Z,3.60
2023-05-06T14:05:35.284Z,5.13
2023-05-06T14:08:02.413Z,3.25
2023-05-06T14:10:29.465Z,3.17
2023-05-06T14:12:56.556Z,5.03
2023-05-06T14:15:23.539Z,3.92
2023-05-06T14:17:50.623Z,2.72
2023-05-06T14:20:17.642Z,5.40
2023-05-06T14:22:44.971Z,3.10
2023-05-06T14:25:12.407Z,4.13
2023-05-06T14:27:39.585Z,3.47
2023-05-06T14:30:09.360Z,2.97
2023-05-06T14:32:37.388Z,4.55
2023-05-06T14:35:05.249Z,2.50
2023-05-06T14:37:32.252Z,4.78
2023-05-06T14:39:59.233Z,4.50
2023-05-06T14:42:26.279Z,1.92
2023-05-06T14:44:55.944Z,2.47
2023-05-06T14:47:25.287Z,3.45
2023-05-06T14:49:52.488Z,3.55
2023-05-06T14:52:20.377Z,2.58
2023-05-06T14:54:48.001Z,2.17
2023-05-06T14:57:15.070Z,3.08
2023-05-06T14:59:42.064Z,2.47
2023-05-06T15:02:10.175Z,1.92
2023-05-06T15:04:37.409Z,3.35
2023-05-06T15:07:04.624Z,3.35
2023-05-06T15:09:31.956Z,2.55
2023-05-06T15:11:59.975Z,3.42
2023-05-06T15:14:26.990Z,2.58
2023-05-06T15:16:57.194Z,3.08
2023-05-06T15:19:24.818Z,5.05
2023-05-06T15:21:51.926Z,2.58
2023-05-06T15:24:18.944Z,3.90
2023-05-06T15:26:46.667Z,1.65
2023-05-06T15:29:14.466Z,5.57
2023-05-06T15:31:45.105Z,4.57
2023-05-06T15:34:14.910Z,4.60
2023-05-06T15:36:42.757Z,3.95
2023-05-06T15:39:10.201Z,6.20
2023-05-06T15:41:39.338Z,3.00
2023-05-06T15:44:11.817Z,1.48
2023-05-06T15:46:40.806Z,1.73
2023-05-06T15:49:39.546Z,5.78
2023-05-06T15:51:59.077Z,2.60
2023-05-06T15:54:29.481Z,5.30
2023-05-06T15:56:58.359Z,3.60
2023-05-06T15:59:27.179Z,3.28
2023-05-06T16:04:25.347Z,2.08
2023-05-06T16:06:52.569Z,2.28
2023-05-06T16:09:19.461Z,3.30
2023-05-06T16:11:46.683Z,6.03
2023-05-06T16:14:13.774Z,2.28
2023-05-06T16:16:41.114Z,2.55
2023-05-06T16:19:08.890Z,5.50
2023-05-06T16:21:35.883Z,5.55
2023-05-06T16:24:03.855Z,4.80
2023-05-06T16:26:31.551Z,4.60
2023-05-06T16:29:01.534Z,2.42
2023-05-06T16:31:29.271Z,1.75
2023-05-06T16:33:57.281Z,2.80
2023-05-06T16:36:25.184Z,2.05
2023-05-06T16:38:52.832Z,2.65
2023-05-06T16:41:20.612Z,2.70
2023-05-06T16:43:48.418Z,2.90
2023-05-06T16:46:16.253Z,2.60
2023-05-06T16:48:44.336Z,2.38
2023-05-06T16:51:15.616Z,2.10
2023-05-06T16:53:43.430Z,3.83
2023-05-06T16:56:12.931Z,5.25
2023-05-06T16:58:40.502Z,5.50
2023-05-06T17:01:09.499Z,8.05
2023-05-06T17:03:38.335Z,3.67
2023-05-06T17:06:06.305Z,3.95
2023-05-06T17:08:36.321Z,3.72
2023-05-06T17:11:07.628Z,4.75
2023-05-06T17:13:35.380Z,4.28
2023-05-06T17:16:03.200Z,5.40
2023-05-06T17:18:30.941Z,6.32
2023-05-06T17:20:58.889Z,3.38
2023-05-06T17:23:27.238Z,4.15
2023-05-06T17:25:57.886Z,3.75
2023-05-06T17:28:25.623Z,5.28
2023-05-06T17:30:53.280Z,3.85
2023-05-06T17:33:22.440Z,6.18
2023-05-06T17:35:50.819Z,4.47
2023-05-06T17:38:18.885Z,5.38
2023-05-06T17:40:46.415Z,3.90
2023-05-06T17:43:14.082Z,6.47
2023-05-06T17:45:41.919Z,3.75
2023-05-06T17:48:09.689Z,4.97
2023-05-06T17:50:38.040Z,7.28
2023-05-06T17:53:05.744Z,5.47
2023-05-06T17:55:33.368Z,6.53
2023-05-06T17:58:01.424Z,6.18
2023-05-06T18:00:31.894Z,4.45
2023-05-06T18:03:01.771Z,5.28
2023-05-06T18:05:29.276Z,4.72
2023-05-06T18:07:56.245Z,6.53
2023-05-06T18:10:23.337Z,4.18
2023-05-06T18:12:50.548Z,5.43
2023-05-06T18:15:17.605Z,5.00
2023-05-06T18:17:45.929Z,6.60
2023-05-06T18:20:13.452Z,9.43
2023-05-06T18:22:42.793Z,5.22
2023-05-06T18:25:10.459Z,5.22
2023-05-06T18:27:37.754Z,7.65
2023-05-06T18:30:06.459Z,7.65
2023-05-06T18:32:34.713Z,6.10
2023-05-06T18:35:01.846Z,5.55
2023-05-06T18:37:29.464Z,6.10
2023-05-06T18:39:56.602Z,5.72
2023-05-06T18:42:23.805Z,8.40
2023-05-06T18:44:50.787Z,5.80
2023-05-06T18:47:19.538Z,6.30
2023-05-06T18:49:46.770Z,5.40
2023-05-06T18:52:14.959Z,6.10
2023-05-06T18:54:42.007Z,6.70
2023-05-06T18:57:09.066Z,5.85
2023-05-06T18:59:36.581Z,6.85
2023-05-06T19:02:04.133Z,5.82
2023-05-06T19:04:32.387Z,8.90
2023-05-06T19:06:59.485Z,6.53
2023-05-06T19:09:26.570Z,4.38
2023-05-06T19:11:53.608Z,5.65
2023-05-06T19:14:21.069Z,4.65
2023-05-06T19:16:49.228Z,3.97
2023-05-06T19:19:16.310Z,4.25
2023-05-06T19:21:43.361Z,6.25
2023-05-06T19:24:10.392Z,3.70
2023-05-06T19:26:38.745Z,6.18
2023-05-06T19:29:05.830Z,4.18
2023-05-06T19:31:33.078Z,4.63
2023-05-06T19:34:00.162Z,3.05
2023-05-06T19:36:28.238Z,4.40
2023-05-06T19:38:55.357Z,3.42
2023-05-06T19:41:22.463Z,3.88
2023-05-06T19:43:51.532Z,3.53
2023-05-06T19:46:18.596Z,2.65
2023-05-06T19:48:46.389Z,4.25
2023-05-06T19:51:13.480Z,3.17
2023-05-06T19:53:40.462Z,4.03
2023-05-06T19:56:14.367Z,3.63
2023-05-06T19:58:41.439Z,3.42
2023-05-06T20:01:09.111Z,5.53
2023-05-06T20:03:36.334Z,3.72
2023-05-06T20:06:04.141Z,4.00
2023-05-06T20:08:31.244Z,4.70
2023-05-06T20:10:58.339Z,5.30
2023-05-06T20:13:25.891Z,6.65
2023-05-06T20:15:54.876Z,3.53
2023-05-06T20:18:22.727Z,4.43
2023-05-06T20:20:49.650Z,3.25
2023-05-06T20:23:16.670Z,4.80
2023-05-06T20:25:43.680Z,5.30
2023-05-06T20:28:10.773Z,5.35
2023-05-06T20:30:38.593Z,4.00
2023-05-06T20:33:06.031Z,4.60
2023-05-06T20:35:38.056Z,3.50
2023-05-06T20:38:06.134Z,4.78
2023-05-06T20:40:35.762Z,4.93
2023-05-06T20:43:03.154Z,4.50
2023-05-06T20:45:31.445Z,4.85
2023-05-06T20:47:58.798Z,3.70
2023-05-06T20:50:26.038Z,4.60
2023-05-06T20:52:54.361Z,2.88
2023-05-06T20:55:23.322Z,4.00
2023-05-06T20:57:50.832Z,3.97
2023-05-06T21:00:18.861Z,6.30
2023-05-06T21:02:45.984Z,6.78
2023-05-06T21:05:13.576Z,5.95
2023-05-06T21:07:41.185Z,6.32
2023-05-06T21:10:10.961Z,5.20
2023-05-06T21:12:38.187Z,5.38
2023-05-06T21:15:06.545Z,4.78
2023-05-06T21:17:33.877Z,5.43
2023-05-06T21:20:01.418Z,3.80
2023-05-06T21:22:29.039Z,6.32
2023-05-06T21:24:56.083Z,5.15
2023-05-06T21:27:23.122Z,5.50
2023-05-06T21:29:50.089Z,4.75
2023-05-06T21:32:17.149Z,3.78
2023-05-06T21:34:44.204Z,4.82
2023-05-06T21:37:11.606Z,3.30
2023-05-06T21:39:38.601Z,3.22
2023-05-06T21:42:05.603Z,4.68
2023-05-06T21:44:32.634Z,2.88
2023-05-06T21:46:59.601Z,4.18
2023-05-06T21:49:26.606Z,4.88
2023-05-06T21:51:53.618Z,4.40
2023-05-06T21:54:21.065Z,4.28
2023-05-06T21:56:48.035Z,4.70
2023-05-06T21:59:14.984Z,5.63
2023-05-06T22:01:42.154Z,3.78
2023-05-06T22:04:12.746Z,5.00
2023-05-06T22:06:40.039Z,6.47
2023-05-06T22:09:09.641Z,9.38
2023-05-06T22:11:38.334Z,6.35
2023-05-06T22:14:06.623Z,5.65
2023-05-06T22:16:35.333Z,9.02
2023-05-06T22:19:03.855Z,10.90
2023-05-06T22:21:32.028Z,8.90
2023-05-06T22:23:59.509Z,9.18
2023-05-06T22:26:29.802Z,11.05
2023-05-06T22:28:56.914Z,7.88
2023-05-06T22:31:24.901Z,10.93
2023-05-06T22:33:57.823Z,9.32
2023-05-06T22:36:28.992Z,10.25
2023-05-06T22:38:56.097Z,8.27
2023-05-06T22:41:23.184Z,8.18
2023-05-06T22:43:50.143Z,8.50
2023-05-06T22:46:17.386Z,7.93
2023-05-06T22:48:44.742Z,8.77
2023-05-06T22:51:12.502Z,5.80
2023-05-06T22:53:39.474Z,6.88
2023-05-06T22:56:07.000Z,7.97
2023-05-06T22:58:34.266Z,7.60
2023-05-06T23:01:01.923Z,10.82
2023-05-06T23:03:30.163Z,10.05
2023-05-06T23:05:57.455Z,11.25
2023-05-06T23:08:47.797Z,13.13
2023-05-06T23:11:14.745Z,13.43
2023-05-06T23:13:41.732Z,15.98
2023-05-06T23:16:10.265Z,13.57
2023-05-06T23:18:37.267Z,14.85
2023-05-06T23:21:04.449Z,17.63
2023-05-06T23:23:32.221Z,12.55
2023-05-06T23:25:59.355Z,14.85
2023-05-06T23:28:26.294Z,14.00
2023-05-06T23:30:53.303Z,13.88
2023-05-06T23:33:20.268Z,13.38
2023-05-06T23:35:47.272Z,12.30
2023-05-06T23:38:14.256Z,10.77
2023-05-06T23:40:41.260Z,12.20
2023-05-06T23:43:09.870Z,10.90
2023-05-06T23:45:37.594Z,14.95
2023-05-06T23:48:05.301Z,13.13
2023-05-06T23:50:32.443Z,10.38
2023-05-06T23:52:59.627Z,11.18
2023-05-06T23:55:27.217Z,10.10
2023-05-06T23:57:54.347Z,11.10
